Hovedside
METAR-TAF:

METAR-TAF

Lufthavner :

Molde, Norge

Molde lufthavn

breddegrad: 62-45N, lengdegrad: 007-16E, høyde over havet: 0 m

Gjeldene værobservasjon

Denne rapporten ble laget for 21 minutter siden, klokken 14:20 UTC
Vind 18 kt fra Øst-sørøst
Temperatur 4°C
Luftfuktighet 52%
Trykk 988 hPa
Sikt 10 km eller mer
Få skyer i en høyde av 2000 ft
Spredte skyer i en høyde av 3500 ft
Brutte skyer i en høyde av 6000 ft

METAR: ENML 221420Z 11018KT 9999 FEW020 SCT035 BKN060 04/M05 Q0988

Tid: 15:41 (14:41 UTC)

Varsel

Denne rapporten ble laget for 41 minutter siden, klokken 14:00 UTC
Varsel gyldig fra 22. klokken 15 UTC til 22. klokken 23 UTC
Vind 17 kt fra Øst
Sikt 10 km eller mer
Få skyer i en høyde av 2000 ft
Brutte skyer i en høyde av 6000 ft

TAF: ENML 221400Z 2215/2223 10017KT 9999 FEW020 BKN060

Værobservasjoner og værvarsel for over 4000 flyplasser (METAR- og TAF-rapporter).

Tilgjengelige stasjoner er representert av de røde og gule prikkene på kartet.

Hold musepekeren over prikken for å se navnet på stasjonen.

Klikk så for å se værobservasjoner og -varsler.

For å forandre kartet kan du klikke på den grønne knappen med svart kryss for å zoome inn, på den grønne knappen med strek for å zoome ut, eller på de grønne pilene for å se tilstøtende kart.


METAR-TAF: